createdAt,value
2023-05-22T00:00:04.756Z,62.53
2023-05-22T00:01:53.918Z,63.03
2023-05-22T00:03:40.369Z,60.08
2023-05-22T00:05:11.224Z,55.86
2023-05-22T00:06:45.901Z,54.57
2023-05-22T00:08:19.409Z,55.10
2023-05-22T00:10:04.378Z,56.02
2023-05-22T00:11:40.359Z,57.00
2023-05-22T00:13:25.855Z,57.80
2023-05-22T00:15:10.062Z,58.59
2023-05-22T00:16:45.710Z,59.10
2023-05-22T00:18:09.691Z,59.47
2023-05-22T00:19:45.188Z,59.80
2023-05-22T00:21:26.172Z,60.23
2023-05-22T00:23:02.411Z,60.66
2023-05-22T00:24:47.663Z,61.02
2023-05-22T00:26:35.160Z,61.38
2023-05-22T00:28:08.776Z,61.64
2023-05-22T00:29:42.026Z,62.00
2023-05-22T00:31:24.792Z,62.18
2023-05-22T00:32:58.547Z,62.53
2023-05-22T00:34:31.951Z,63.23
2023-05-22T00:35:54.665Z,61.75
2023-05-22T00:37:20.751Z,58.88
2023-05-22T00:38:42.588Z,55.63
2023-05-22T00:40:18.823Z,54.77
2023-05-22T00:41:42.515Z,55.38
2023-05-22T00:43:23.383Z,56.12
2023-05-22T00:45:08.376Z,57.15
2023-05-22T00:46:34.845Z,58.05
2023-05-22T00:48:08.480Z,58.79
2023-05-22T00:49:30.320Z,59.50
2023-05-22T00:51:06.209Z,59.85
2023-05-22T00:52:32.943Z,60.36
2023-05-22T00:54:14.004Z,60.60
2023-05-22T00:55:35.847Z,60.71
2023-05-22T00:57:00.749Z,61.02
2023-05-22T00:58:24.876Z,61.26
2023-05-22T00:59:59.724Z,61.61
2023-05-22T01:01:36.872Z,61.97
2023-05-22T01:03:21.930Z,62.55
2023-05-22T01:04:57.880Z,62.98
2023-05-22T01:06:39.673Z,60.50
2023-05-22T01:08:01.903Z,56.61
2023-05-22T01:09:28.818Z,54.55
2023-05-22T01:11:10.452Z,54.92
2023-05-22T01:12:44.375Z,55.94
2023-05-22T01:14:29.410Z,56.89
2023-05-22T01:16:14.802Z,57.83
2023-05-22T01:17:56.006Z,58.47
2023-05-22T01:19:42.636Z,59.13
2023-05-22T01:21:27.903Z,59.76
2023-05-22T01:23:03.384Z,60.13
2023-05-22T01:24:46.236Z,60.71
2023-05-22T01:26:31.594Z,60.87
2023-05-22T01:28:17.090Z,61.45
2023-05-22T01:29:50.627Z,61.82
2023-05-22T01:31:26.075Z,62.15
2023-05-22T01:32:59.937Z,63.12
2023-05-22T01:34:47.472Z,62.13
2023-05-22T01:36:22.543Z,58.68
2023-05-22T01:37:56.251Z,55.29
2023-05-22T01:39:30.077Z,54.77
2023-05-22T01:41:10.714Z,55.56
2023-05-22T01:42:44.275Z,56.19
2023-05-22T01:44:25.541Z,57.23
2023-05-22T01:45:50.307Z,57.94
2023-05-22T01:47:35.551Z,58.35
2023-05-22T01:49:16.500Z,59.44
2023-05-22T01:50:56.933Z,59.65
2023-05-22T01:52:55.837Z,60.49
2023-05-22T01:54:40.422Z,60.82
2023-05-22T01:56:17.028Z,60.79
2023-05-22T01:57:52.939Z,61.14
2023-05-22T01:59:26.190Z,61.63
2023-05-22T02:01:07.077Z,61.92
2023-05-22T02:02:53.421Z,62.35
2023-05-22T02:04:22.633Z,62.30
2023-05-22T02:05:56.530Z,63.32
2023-05-22T02:07:41.508Z,62.10
2023-05-22T02:09:13.053Z,58.05
2023-05-22T02:10:47.364Z,54.83
2023-05-22T02:12:32.781Z,54.85
2023-05-22T02:14:18.164Z,56.13
2023-05-22T02:15:51.588Z,56.92
2023-05-22T02:17:24.628Z,57.93
2023-05-22T02:18:46.738Z,58.44
2023-05-22T02:20:27.492Z,59.26
2023-05-22T02:22:02.108Z,59.78
2023-05-22T02:23:47.047Z,60.16
2023-05-22T02:25:21.279Z,60.84
2023-05-22T02:27:06.229Z,61.53
2023-05-22T02:28:51.271Z,61.75
2023-05-22T02:30:36.980Z,62.34
2023-05-22T02:32:20.176Z,63.68
2023-05-22T02:33:53.969Z,62.06
2023-05-22T02:35:39.572Z,58.37
2023-05-22T02:37:15.729Z,55.17
2023-05-22T02:39:10.685Z,55.09
2023-05-22T02:40:52.000Z,56.40
2023-05-22T02:42:16.574Z,57.29
2023-05-22T02:43:50.417Z,58.35
2023-05-22T02:45:23.595Z,59.19
2023-05-22T02:46:57.482Z,59.90
2023-05-22T02:48:44.849Z,60.34
2023-05-22T02:50:08.411Z,60.96
2023-05-22T02:51:41.934Z,61.40
2023-05-22T02:53:03.864Z,62.16
2023-05-22T02:54:37.495Z,62.93
2023-05-22T02:56:12.972Z,63.29
2023-05-22T02:57:46.486Z,60.47
2023-05-22T02:59:17.717Z,56.72
2023-05-22T03:00:47.082Z,55.11
2023-05-22T03:02:21.761Z,55.33
2023-05-22T03:03:50.834Z,56.58
2023-05-22T03:05:24.839Z,57.70
2023-05-22T03:06:58.223Z,58.68
2023-05-22T03:08:34.128Z,59.48
2023-05-22T03:10:08.925Z,60.26
2023-05-22T03:11:45.023Z,61.09
2023-05-22T03:13:28.953Z,61.57
2023-05-22T03:15:15.150Z,62.33
2023-05-22T03:17:00.212Z,63.14
2023-05-22T03:18:27.626Z,61.11
2023-05-22T03:20:04.910Z,57.43
2023-05-22T03:21:49.684Z,54.94
2023-05-22T03:23:33.408Z,55.05
2023-05-22T03:25:14.317Z,56.51
2023-05-22T03:27:00.238Z,57.74
2023-05-22T03:28:41.901Z,58.76
2023-05-22T03:30:22.953Z,59.29
2023-05-22T03:32:04.849Z,59.70
2023-05-22T03:33:38.329Z,60.36
2023-05-22T03:35:29.900Z,61.18
2023-05-22T03:37:22.422Z,61.36
2023-05-22T03:38:56.629Z,61.87
2023-05-22T03:40:42.261Z,62.14
2023-05-22T03:42:17.312Z,63.07
2023-05-22T03:44:02.883Z,62.47
2023-05-22T03:45:47.948Z,58.68
2023-05-22T03:47:35.482Z,54.96
2023-05-22T03:49:25.263Z,54.76
2023-05-22T03:51:14.869Z,56.39
2023-05-22T03:52:38.592Z,57.56
2023-05-22T03:54:07.458Z,58.28
2023-05-22T03:55:42.781Z,58.84
2023-05-22T03:57:25.058Z,59.32
2023-05-22T03:58:51.507Z,59.98
2023-05-22T04:00:42.406Z,60.23
2023-05-22T04:02:17.099Z,60.53
2023-05-22T04:03:58.320Z,61.18
2023-05-22T04:05:32.013Z,61.40
2023-05-22T04:06:53.926Z,61.73
2023-05-22T04:08:46.935Z,61.95
2023-05-22T04:10:22.451Z,62.56
2023-05-22T04:11:58.461Z,62.57
2023-05-22T04:13:31.918Z,60.06
2023-05-22T04:15:21.874Z,56.53
2023-05-22T04:16:57.475Z,54.80
2023-05-22T04:18:43.927Z,55.01
2023-05-22T04:20:17.970Z,56.09
2023-05-22T04:21:59.040Z,56.87
2023-05-22T04:23:52.567Z,57.94
2023-05-22T04:25:26.061Z,57.99
2023-05-22T04:27:07.047Z,58.14
2023-05-22T04:28:42.950Z,59.09
2023-05-22T04:30:32.941Z,58.99
2023-05-22T04:32:08.712Z,58.99
2023-05-22T04:33:39.931Z,59.64
2023-05-22T04:35:31.678Z,59.87
2023-05-22T04:37:13.501Z,59.75
2023-05-22T04:38:36.617Z,60.24
2023-05-22T04:40:19.067Z,60.02
2023-05-22T04:42:04.008Z,60.89
2023-05-22T04:43:50.327Z,60.57
2023-05-22T04:45:25.296Z,60.47
2023-05-22T04:46:59.769Z,60.38
2023-05-22T04:48:43.586Z,61.11
2023-05-22T04:50:24.304Z,60.88
2023-05-22T04:52:09.388Z,60.62
2023-05-22T04:53:33.542Z,60.50
2023-05-22T04:55:23.608Z,60.25
2023-05-22T04:56:53.267Z,60.51
2023-05-22T04:58:41.156Z,60.99
2023-05-22T05:00:27.643Z,60.91
2023-05-22T05:02:03.906Z,61.14
2023-05-22T05:03:40.127Z,60.53
2023-05-22T05:05:34.725Z,59.68
2023-05-22T05:07:05.030Z,59.87
2023-05-22T05:08:49.722Z,60.29
2023-05-22T05:10:23.167Z,60.16
2023-05-22T05:12:16.413Z,60.81
2023-05-22T05:14:01.997Z,60.65
2023-05-22T05:15:47.604Z,59.82
2023-05-22T05:17:29.838Z,59.39
2023-05-22T05:19:23.574Z,59.67
2023-05-22T05:20:45.740Z,60.06
2023-05-22T05:22:10.120Z,60.40
2023-05-22T05:23:43.271Z,61.07
2023-05-22T05:25:24.480Z,60.74
2023-05-22T05:27:06.055Z,60.97
2023-05-22T05:28:51.016Z,60.58
2023-05-22T05:30:31.930Z,60.14
2023-05-22T05:32:14.379Z,59.24
2023-05-22T05:33:58.019Z,59.77
2023-05-22T05:35:50.436Z,60.60
2023-05-22T05:37:26.006Z,60.86
2023-05-22T05:39:08.381Z,60.00
2023-05-22T05:40:45.421Z,59.65
2023-05-22T05:42:27.476Z,59.24
2023-05-22T05:44:04.269Z,59.04
2023-05-22T05:45:50.545Z,58.54
2023-05-22T05:47:12.080Z,58.67
2023-05-22T05:48:36.181Z,59.05
2023-05-22T05:50:21.331Z,59.51
2023-05-22T05:52:02.078Z,59.07
2023-05-22T05:53:36.963Z,59.64
2023-05-22T05:55:11.408Z,59.18
2023-05-22T05:56:57.109Z,59.69
2023-05-22T05:58:51.185Z,59.11
2023-05-22T06:00:43.923Z,59.10
2023-05-22T06:02:17.433Z,58.31
2023-05-22T06:04:06.079Z,58.06
2023-05-22T06:05:42.115Z,57.79
2023-05-22T06:07:15.628Z,58.24
2023-05-22T06:09:05.027Z,57.78
2023-05-22T06:10:27.456Z,57.23
2023-05-22T06:12:16.371Z,57.54
2023-05-22T06:14:03.162Z,57.49
2023-05-22T06:15:36.477Z,57.61
2023-05-22T06:17:30.328Z,57.34
2023-05-22T06:18:57.049Z,56.65
2023-05-22T06:20:44.838Z,55.64
2023-05-22T06:22:14.243Z,56.53
2023-05-22T06:23:59.907Z,56.22
2023-05-22T06:25:46.522Z,55.96
2023-05-22T06:27:31.438Z,55.79
2023-05-22T06:29:25.373Z,55.14
2023-05-22T06:31:10.439Z,56.08
2023-05-22T06:32:51.163Z,55.93
2023-05-22T06:34:35.978Z,56.03
2023-05-22T06:36:00.743Z,54.81
2023-05-22T06:37:43.175Z,54.50
2023-05-22T06:39:29.767Z,54.07
2023-05-22T06:41:48.086Z,52.97
2023-05-22T06:43:23.805Z,52.41
2023-05-22T06:45:04.304Z,50.80
2023-05-22T06:46:43.173Z,50.86
2023-05-22T06:48:09.549Z,51.46
2023-05-22T06:49:56.439Z,50.94
2023-05-22T06:51:32.002Z,50.87
2023-05-22T06:53:23.824Z,51.11
2023-05-22T06:55:04.228Z,50.78
2023-05-22T06:56:31.882Z,50.02
2023-05-22T06:58:08.873Z,49.28
2023-05-22T06:59:45.762Z,49.36
2023-05-22T07:01:30.188Z,48.24
2023-05-22T07:03:10.332Z,47.42
2023-05-22T07:04:46.351Z,48.03
2023-05-22T07:06:24.760Z,47.22
2023-05-22T07:08:01.051Z,46.89
2023-05-22T07:09:35.791Z,47.07
2023-05-22T07:11:10.101Z,47.49
2023-05-22T07:12:43.451Z,46.40
2023-05-22T07:14:19.130Z,45.88
2023-05-22T07:16:00.250Z,46.76
2023-05-22T07:17:24.870Z,45.52
2023-05-22T07:18:58.489Z,44.76
2023-05-22T07:20:48.701Z,45.50
2023-05-22T07:22:26.766Z,46.16
2023-05-22T07:24:11.965Z,45.33
2023-05-22T07:26:03.420Z,44.58
2023-05-22T07:27:39.692Z,44.87
2023-05-22T07:29:25.785Z,44.13
2023-05-22T07:31:12.342Z,44.80
2023-05-22T07:32:45.781Z,43.87
2023-05-22T07:34:19.476Z,43.44
2023-05-22T07:35:53.321Z,43.39
2023-05-22T07:37:28.928Z,43.84
2023-05-22T07:39:02.429Z,42.69
2023-05-22T07:40:47.383Z,43.54
2023-05-22T07:42:32.731Z,42.83
2023-05-22T07:43:59.791Z,43.62
2023-05-22T07:45:48.326Z,43.35
2023-05-22T07:47:38.732Z,43.75
2023-05-22T07:49:16.229Z,41.26
2023-05-22T07:50:51.696Z,40.48
2023-05-22T07:52:25.478Z,40.29
2023-05-22T07:53:54.490Z,42.24
2023-05-22T07:55:40.647Z,42.94
2023-05-22T07:57:33.158Z,42.14
2023-05-22T07:59:24.240Z,43.18
2023-05-22T08:01:05.839Z,41.33
2023-05-22T08:02:52.411Z,39.90
2023-05-22T08:04:37.828Z,41.16
2023-05-22T08:06:29.172Z,39.54
2023-05-22T08:08:03.731Z,39.21
2023-05-22T08:09:48.652Z,40.61
2023-05-22T08:11:40.448Z,40.31
2023-05-22T08:13:25.767Z,39.72
2023-05-22T08:15:18.115Z,38.55
2023-05-22T08:16:59.338Z,37.45
2023-05-22T08:18:40.765Z,38.87
2023-05-22T08:20:21.573Z,38.50
2023-05-22T08:21:58.041Z,38.38
2023-05-22T08:23:31.326Z,38.54
2023-05-22T08:25:05.109Z,37.90
2023-05-22T08:26:47.316Z,37.51
2023-05-22T08:28:32.256Z,37.32
2023-05-22T08:30:13.125Z,37.19
2023-05-22T08:31:58.433Z,37.61
2023-05-22T08:33:22.771Z,37.79
2023-05-22T08:34:46.862Z,37.98
2023-05-22T08:36:32.333Z,36.69
2023-05-22T08:38:05.846Z,37.23
2023-05-22T08:39:40.610Z,37.72
2023-05-22T08:41:25.136Z,37.08
2023-05-22T08:43:01.598Z,37.86
2023-05-22T08:44:27.803Z,37.12
2023-05-22T08:46:13.009Z,37.63
2023-05-22T08:47:58.388Z,37.66
2023-05-22T08:49:51.582Z,37.00
2023-05-22T08:51:45.788Z,36.67
2023-05-22T08:53:39.434Z,36.57
2023-05-22T08:55:12.605Z,36.94
2023-05-22T08:56:57.823Z,36.34
2023-05-22T08:58:31.324Z,35.47
2023-05-22T08:59:55.296Z,36.66
2023-05-22T09:01:17.101Z,36.70
2023-05-22T09:02:53.081Z,36.24
2023-05-22T09:04:36.670Z,35.57
2023-05-22T09:06:11.241Z,35.62
2023-05-22T09:07:33.018Z,35.77
2023-05-22T09:08:55.098Z,36.06
2023-05-22T09:10:36.831Z,35.96
2023-05-22T09:12:12.443Z,35.34
2023-05-22T09:13:45.900Z,36.18
2023-05-22T09:15:21.234Z,35.89
2023-05-22T09:17:02.104Z,35.63
2023-05-22T09:20:32.485Z,36.52
2023-05-22T09:22:07.835Z,36.67
2023-05-22T09:23:43.665Z,36.65
2023-05-22T09:25:07.889Z,35.64
2023-05-22T09:27:01.599Z,35.82
2023-05-22T09:28:25.397Z,35.57
2023-05-22T09:30:06.891Z,35.42
2023-05-22T09:31:42.474Z,36.23
2023-05-22T09:33:18.033Z,34.93
2023-05-22T09:34:51.850Z,35.03
2023-05-22T09:36:28.095Z,34.41
2023-05-22T09:38:11.429Z,34.33
2023-05-22T09:39:57.926Z,34.59
2023-05-22T09:41:34.190Z,35.31
2023-05-22T09:42:58.039Z,35.06
2023-05-22T09:44:20.087Z,35.18
2023-05-22T09:45:41.882Z,36.28
2023-05-22T09:47:17.856Z,36.12
2023-05-22T09:48:39.830Z,35.00
2023-05-22T09:50:14.004Z,34.77
2023-05-22T09:51:42.872Z,35.44
2023-05-22T09:53:27.925Z,34.33
2023-05-22T09:55:05.260Z,35.01
2023-05-22T09:56:38.681Z,35.13
2023-05-22T09:58:13.852Z,35.37
2023-05-22T09:59:42.914Z,34.73
2023-05-22T10:01:19.185Z,33.40
2023-05-22T10:02:55.051Z,33.21
2023-05-22T10:04:18.306Z,34.05
2023-05-22T10:05:42.409Z,35.52
2023-05-22T10:07:06.762Z,34.54
2023-05-22T10:08:28.954Z,35.08
2023-05-22T10:09:53.260Z,34.98
2023-05-22T10:11:17.182Z,34.46
2023-05-22T10:12:39.022Z,35.13
2023-05-22T10:14:08.898Z,34.49
2023-05-22T10:15:31.160Z,34.23
2023-05-22T10:17:13.109Z,34.64
2023-05-22T10:18:58.243Z,34.96
2023-05-22T10:20:39.917Z,34.22
2023-05-22T10:22:28.683Z,34.96
2023-05-22T10:23:52.942Z,35.04
2023-05-22T10:25:38.012Z,34.80
2023-05-22T10:27:19.335Z,35.11
2023-05-22T10:28:46.100Z,35.59
2023-05-22T18:54:46.260Z,51.95
2023-05-22T18:56:19.356Z,52.25
2023-05-22T18:58:04.290Z,52.69
2023-05-22T18:59:33.612Z,52.94
2023-05-22T19:01:08.328Z,53.21
2023-05-22T19:02:53.551Z,53.74
2023-05-22T19:04:38.207Z,53.96
2023-05-22T19:06:14.235Z,54.51
2023-05-22T19:07:50.135Z,54.76
2023-05-22T19:09:22.062Z,54.58
2023-05-22T19:10:55.560Z,54.55
2023-05-22T19:12:26.879Z,54.67
2023-05-22T19:14:01.691Z,54.91
2023-05-22T19:15:25.544Z,54.90
2023-05-22T19:17:01.696Z,54.73
2023-05-22T19:18:27.316Z,54.78
2023-05-22T19:20:09.966Z,55.02
2023-05-22T19:21:42.714Z,55.20
2023-05-22T19:23:06.715Z,55.25
2023-05-22T19:24:32.503Z,55.41
2023-05-22T19:26:14.002Z,55.49
2023-05-22T19:27:47.485Z,55.45
2023-05-22T19:29:34.826Z,55.67
2023-05-22T19:30:58.460Z,55.86
2023-05-22T19:32:26.259Z,55.92
2023-05-22T19:33:52.454Z,56.00
2023-05-22T19:35:14.966Z,56.08
2023-05-22T19:36:57.343Z,56.36
2023-05-22T19:38:23.376Z,56.32
2023-05-22T19:39:57.090Z,56.40
2023-05-22T19:41:22.778Z,56.36
2023-05-22T19:42:47.105Z,56.60
2023-05-22T19:44:11.279Z,56.72
2023-05-22T19:45:32.831Z,56.89
2023-05-22T19:47:01.860Z,57.25
2023-05-22T19:48:33.119Z,57.56
2023-05-22T19:50:06.741Z,57.78
2023-05-22T19:51:42.714Z,58.25
2023-05-22T19:53:07.161Z,58.67
2023-05-22T19:54:31.900Z,59.05
2023-05-22T19:56:02.118Z,59.47
2023-05-22T19:57:23.835Z,59.36
2023-05-22T19:58:45.767Z,59.60
2023-05-22T20:00:19.419Z,59.61
2023-05-22T20:01:40.915Z,59.65
2023-05-22T20:03:25.902Z,59.23
2023-05-22T20:05:20.171Z,59.35
2023-05-22T20:06:54.556Z,59.46
2023-05-22T20:08:18.078Z,59.46
2023-05-22T20:09:51.439Z,59.34
2023-05-22T20:11:26.136Z,59.89
2023-05-22T20:12:50.087Z,60.48
2023-05-22T20:14:11.862Z,60.81
2023-05-22T20:15:36.747Z,60.93
2023-05-22T20:17:22.184Z,61.24
2023-05-22T20:18:56.299Z,61.24
2023-05-22T20:20:19.489Z,60.77
2023-05-22T20:22:00.258Z,60.88
2023-05-22T20:23:24.585Z,61.09
2023-05-22T20:24:55.002Z,61.13
2023-05-22T20:26:40.119Z,61.44
2023-05-22T20:28:13.913Z,62.04
2023-05-22T20:30:07.551Z,62.05
2023-05-22T20:31:43.486Z,62.35
2023-05-22T20:33:37.310Z,62.69
2023-05-22T20:35:18.233Z,62.90
2023-05-22T20:36:42.817Z,59.88
2023-05-22T20:38:18.928Z,56.07
2023-05-22T20:39:45.040Z,54.74
2023-05-22T20:41:19.753Z,55.21
2023-05-22T20:42:44.241Z,55.94
2023-05-22T20:44:12.335Z,56.37
2023-05-22T20:45:47.995Z,57.08
2023-05-22T20:47:17.124Z,57.65
2023-05-22T20:48:50.489Z,57.90
2023-05-22T20:50:19.792Z,58.14
2023-05-22T20:51:43.699Z,58.90
2023-05-22T20:53:18.222Z,59.53
2023-05-22T20:54:39.836Z,59.78
2023-05-22T20:56:15.540Z,60.07
2023-05-22T20:57:46.292Z,60.53
2023-05-22T20:59:15.884Z,60.75
2023-05-22T21:00:42.052Z,61.21
2023-05-22T21:02:04.182Z,61.50
2023-05-22T21:03:35.541Z,61.76
2023-05-22T21:04:57.185Z,61.96
2023-05-22T21:06:33.752Z,61.90
2023-05-22T21:08:10.876Z,62.00
2023-05-22T21:09:40.148Z,62.06
2023-05-22T21:11:13.551Z,62.31
2023-05-22T21:12:46.922Z,62.28
2023-05-22T21:14:20.505Z,62.45
2023-05-22T21:15:42.616Z,63.16
2023-05-22T21:17:07.500Z,63.41
2023-05-22T21:18:29.114Z,61.17
2023-05-22T21:19:55.958Z,57.90
2023-05-22T21:21:20.010Z,55.15
2023-05-22T21:22:51.176Z,54.95
2023-05-22T21:24:20.694Z,55.74
2023-05-22T21:25:54.185Z,56.65
2023-05-22T21:27:35.775Z,57.50
2023-05-22T21:28:59.709Z,58.19
2023-05-22T21:30:29.758Z,59.05
2023-05-22T21:31:53.698Z,59.54
2023-05-22T21:33:15.876Z,59.99
2023-05-22T21:34:41.035Z,60.41
2023-05-22T21:36:07.689Z,60.73
2023-05-22T21:37:48.415Z,60.72
2023-05-22T21:39:17.901Z,60.79
2023-05-22T21:40:42.841Z,61.28
2023-05-22T21:42:19.025Z,61.83
2023-05-22T21:43:41.589Z,62.03
2023-05-22T21:45:11.296Z,62.33
2023-05-22T21:46:35.805Z,62.83
2023-05-22T21:48:09.728Z,63.39
2023-05-22T21:49:43.407Z,61.24
2023-05-22T21:51:07.914Z,57.51
2023-05-22T21:52:48.954Z,55.28
2023-05-22T21:54:11.020Z,55.17
2023-05-22T21:55:35.215Z,55.91
2023-05-22T21:56:57.366Z,56.65
2023-05-22T21:58:19.879Z,57.58
2023-05-22T21:59:53.039Z,58.33
2023-05-22T22:01:20.682Z,58.87
2023-05-22T22:03:06.995Z,59.64
2023-05-22T22:04:51.904Z,60.21
2023-05-22T22:06:13.685Z,60.78
2023-05-22T22:07:49.768Z,61.05
2023-05-22T22:09:12.196Z,61.28
2023-05-22T22:10:44.533Z,61.84
2023-05-22T22:12:06.556Z,61.99
2023-05-22T22:13:30.446Z,62.79
2023-05-22T22:14:54.735Z,63.22
2023-05-22T22:16:24.368Z,61.13
2023-05-22T22:17:47.411Z,57.69
2023-05-22T22:19:11.822Z,55.18
2023-05-22T22:20:45.119Z,54.82
2023-05-22T22:22:18.793Z,55.55
2023-05-22T22:23:40.631Z,56.23
2023-05-22T22:25:14.141Z,57.06
2023-05-22T22:26:47.952Z,57.76
2023-05-22T22:28:10.462Z,58.64
2023-05-22T22:29:46.847Z,59.09
2023-05-22T22:31:11.723Z,59.83
2023-05-22T22:32:35.963Z,60.34
2023-05-22T22:34:09.054Z,60.91
2023-05-22T22:35:54.013Z,61.28
2023-05-22T22:37:27.650Z,61.79
2023-05-22T22:38:49.456Z,62.05
2023-05-22T22:40:26.664Z,62.27
2023-05-22T22:41:51.049Z,63.04
2023-05-22T22:43:15.629Z,63.00
2023-05-22T22:44:46.700Z,60.47
2023-05-22T22:46:09.123Z,56.74
2023-05-22T22:47:31.882Z,54.76
2023-05-22T22:48:57.045Z,54.66
2023-05-22T22:50:21.625Z,55.46
2023-05-22T22:51:43.737Z,56.57
2023-05-22T22:53:21.009Z,57.47
2023-05-22T22:54:45.575Z,58.32
2023-05-22T22:56:17.935Z,59.15
2023-05-22T22:57:51.262Z,59.59
2023-05-22T22:59:24.709Z,60.19
2023-05-22T23:00:49.994Z,60.49
2023-05-22T23:02:22.404Z,60.98
2023-05-22T23:03:46.447Z,61.26
2023-05-22T23:05:27.851Z,61.58
2023-05-22T23:06:59.591Z,62.14
2023-05-22T23:08:23.947Z,62.21
2023-05-22T23:10:05.327Z,62.71
2023-05-22T23:11:39.194Z,62.65
2023-05-22T23:13:24.505Z,59.28
2023-05-22T23:14:55.755Z,55.63
2023-05-22T23:16:37.836Z,54.84
2023-05-22T23:18:23.585Z,55.68
2023-05-22T23:20:08.935Z,57.02
2023-05-22T23:21:45.396Z,57.73
2023-05-22T23:23:34.763Z,58.26
2023-05-22T23:25:20.088Z,58.99
2023-05-22T23:26:55.719Z,59.25
2023-05-22T23:28:37.750Z,59.87
2023-05-22T23:30:11.158Z,60.74
2023-05-22T23:31:56.294Z,61.17
2023-05-22T23:33:32.146Z,61.35
2023-05-22T23:35:26.270Z,61.57
2023-05-22T23:37:00.285Z,62.04
2023-05-22T23:38:35.731Z,62.65
2023-05-22T23:40:18.196Z,63.04
2023-05-22T23:41:54.157Z,60.27
2023-05-22T23:43:37.196Z,56.67
2023-05-22T23:45:06.486Z,54.95
2023-05-22T23:46:39.218Z,55.17
2023-05-22T23:48:08.031Z,56.18
2023-05-22T23:49:41.384Z,56.87
2023-05-22T23:51:05.213Z,57.90
2023-05-22T23:52:38.732Z,58.67
2023-05-22T23:54:00.494Z,58.79
2023-05-22T23:55:45.744Z,59.47
2023-05-22T23:57:23.644Z,59.77
2023-05-22T23:59:08.871Z,60.47
